Main page
METAR-TAF:

METAR-TAF

Airports :

Svalbard Airport. Longyear

Longyearbyen, Norway

latitude: 78-15N, longitude: 015-28E, elevation: 2 m

Current weather observation

The report was made 1 hour and 1 minutes ago, at 16:50 UTC
Wind 7 kt from the East/Southeast
Temperature -7°C
Humidity 73%
Pressure 1006 hPa
Visibility: 5000 m
light snow

METAR: ENSB 151650Z 11007KT 5000 -SN VV018 M07/M11 Q1006 RMK WIND 1400FT 10012KT

Time: 18:51 (17:51 UTC)

Forecast

Forecast valid from 15 at 12 UTC to 16 at 12 UTC
Wind 5 kt from the East/Southeast
Visibility 10 km or more
Few clouds at a height of 3000 ft
Broken clouds at a height of 4000 ft
Temporary
from 15 at 18 UTC to 16 at 12 UTC
Wind 15 kt from the East/Southeast

TAF: ENSB 1512/1612 12005KT 9999 FEW030 BKN040 TEMPO 1518/1612 12015KT

Weather observations and forecasts of more than 4000 airports (METAR and TAF reports).

The available stations are represented by yellow and red dots on the map.

Hover mouse over dot to see the name of the station.

Then click to see weather observations and forecasts.

To change the map : click on the green buttons with a black cross to zoom in, on the green button with a dash to zoom out, or on the green arrows for adjacent maps.


METAR-TAF: